TAM8405 SABE-SBGL
Flight info
| Callsign | TAM8405 |
|---|---|
| Flight time | 1h 9m |
| Altitude | 39000 |
| Route | DORVO8 DORVO UN857 AKNUB |
| Aircraft | A20N/M-SDE2E3FGHIRWXY/LB1 |
Departure
| Time | 2026-05-04 23:26 |
|---|---|
| Airport | Aeroparque Jorge Newbery (SABE) |
Arrival
| Time | 2026-05-05 00:36 |
|---|---|
| Airport | Rio Galeão – Tom Jobim International Airport (SBGL) |
| Time | Latitude | Longitude | Altitude | Speed | Heading |
|---|---|---|---|---|---|
| 2026-05-04 22:54 | -34.55659 | -58.41534 | 26 ft | 0 kts | 4° |
| 2026-05-04 23:18 | -34.55675 | -58.41535 | 30 ft | 2 kts | 360° |
| 2026-05-04 23:18 | -34.55691 | -58.41533 | 29 ft | 2 kts | 351° |
| 2026-05-04 23:18 | -34.55707 | -58.41527 | 31 ft | 2 kts | 324° |
| 2026-05-04 23:19 | -34.55718 | -58.41513 | 31 ft | 2 kts | 300° |
| 2026-05-04 23:19 | -34.55720 | -58.41507 | 29 ft | 0 kts | 299° |
| 2026-05-04 23:21 | -34.55720 | -58.41508 | 29 ft | 1 kts | 299° |
| 2026-05-04 23:21 | -34.55715 | -58.41530 | 31 ft | 5 kts | 270° |
| 2026-05-04 23:22 | -34.55743 | -58.41566 | 28 ft | 8 kts | 208° |
| 2026-05-04 23:22 | -34.55778 | -58.41593 | 26 ft | 9 kts | 218° |
| 2026-05-04 23:22 | -34.55768 | -58.41664 | 27 ft | 11 kts | 299° |
| 2026-05-04 23:22 | -34.55710 | -58.41792 | 30 ft | 15 kts | 302° |
| 2026-05-04 23:23 | -34.55648 | -58.41903 | 27 ft | 16 kts | 304° |
| 2026-05-04 23:23 | -34.55608 | -58.41976 | 27 ft | 15 kts | 304° |
| 2026-05-04 23:23 | -34.55549 | -58.42077 | 26 ft | 15 kts | 307° |
| 2026-05-04 23:23 | -34.55488 | -58.42175 | 26 ft | 14 kts | 307° |
| 2026-05-04 23:24 | -34.55429 | -58.42268 | 26 ft | 14 kts | 307° |
| 2026-05-04 23:24 | -34.55372 | -58.42362 | 26 ft | 13 kts | 298° |
| 2026-05-04 23:24 | -34.55368 | -58.42374 | 27 ft | 0 kts | 291° |
| 2026-05-04 23:24 | -34.55368 | -58.42375 | 27 ft | 1 kts | 291° |
| 2026-05-04 23:25 | -34.55362 | -58.42395 | 26 ft | 4 kts | 286° |
| 2026-05-04 23:25 | -34.55354 | -58.42445 | 28 ft | 8 kts | 280° |
| 2026-05-04 23:25 | -34.55375 | -58.42505 | 27 ft | 9 kts | 213° |
| 2026-05-04 23:25 | -34.55426 | -58.42464 | 26 ft | 23 kts | 126° |
| 2026-05-04 23:26 | -34.55645 | -58.42073 | 27 ft | 89 kts | 124° |
| 2026-05-04 23:26 | -34.56118 | -58.41221 | 28 ft | 153 kts | 123° |
| 2026-05-04 23:26 | -34.56735 | -58.40121 | 574 ft | 155 kts | 124° |
| 2026-05-04 23:26 | -34.57373 | -58.39062 | 1249 ft | 159 kts | 122° |
| 2026-05-04 23:27 | -34.57701 | -58.37730 | 1576 ft | 175 kts | 75° |
| 2026-05-04 23:27 | -34.56968 | -58.36514 | 1828 ft | 192 kts | 31° |
| 2026-05-04 23:27 | -34.55740 | -58.35738 | 2098 ft | 215 kts | 23° |
| 2026-05-04 23:27 | -34.54303 | -58.34899 | 2404 ft | 241 kts | 25° |
| 2026-05-04 23:28 | -34.52810 | -58.33872 | 2976 ft | 255 kts | 36° |
| 2026-05-04 23:28 | -34.51776 | -58.32066 | 3536 ft | 273 kts | 71° |
| 2026-05-04 23:28 | -34.51754 | -58.29753 | 4200 ft | 282 kts | 104° |
| 2026-05-04 23:28 | -34.52412 | -58.27500 | 4795 ft | 286 kts | 111° |
| 2026-05-04 23:29 | -34.53137 | -58.25229 | 5448 ft | 290 kts | 111° |
| 2026-05-04 23:29 | -34.53834 | -58.22928 | 6230 ft | 291 kts | 110° |
| 2026-05-04 23:29 | -34.54498 | -58.20598 | 6940 ft | 294 kts | 109° |
| 2026-05-04 23:29 | -34.55133 | -58.18250 | 7588 ft | 299 kts | 109° |
| 2026-05-04 23:30 | -34.55765 | -58.15828 | 8273 ft | 303 kts | 109° |
| 2026-05-04 23:30 | -34.56394 | -58.13367 | 8995 ft | 307 kts | 109° |
| 2026-05-04 23:30 | -34.57023 | -58.10876 | 9711 ft | 311 kts | 110° |
| 2026-05-04 23:30 | -34.57660 | -58.08339 | 10263 ft | 321 kts | 110° |
| 2026-05-04 23:31 | -34.58331 | -58.05667 | 10554 ft | 340 kts | 110° |
| 2026-05-04 23:31 | -34.59035 | -58.02853 | 10881 ft | 356 kts | 110° |
| 2026-05-04 23:31 | -34.59749 | -57.99981 | 11385 ft | 364 kts | 109° |
| 2026-05-04 23:31 | -34.60485 | -57.97014 | 11986 ft | 370 kts | 110° |
| 2026-05-04 23:32 | -34.61233 | -57.93994 | 12662 ft | 375 kts | 110° |
| 2026-05-04 23:32 | -34.61987 | -57.90948 | 13354 ft | 380 kts | 110° |
| 2026-05-04 23:32 | -34.62751 | -57.87857 | 13988 ft | 385 kts | 110° |
| 2026-05-04 23:32 | -34.63524 | -57.84727 | 14565 ft | 389 kts | 110° |
| 2026-05-04 23:33 | -34.64306 | -57.81557 | 15166 ft | 393 kts | 110° |
| 2026-05-04 23:33 | -34.65087 | -57.78389 | 15742 ft | 398 kts | 110° |
| 2026-05-04 23:33 | -34.65884 | -57.75151 | 16337 ft | 402 kts | 110° |
| 2026-05-04 23:33 | -34.66687 | -57.71882 | 16924 ft | 406 kts | 110° |
| 2026-05-04 23:34 | -34.67500 | -57.68572 | 17507 ft | 410 kts | 110° |
| 2026-05-04 23:34 | -34.68319 | -57.65231 | 18068 ft | 415 kts | 110° |
| 2026-05-04 23:34 | -34.69145 | -57.61855 | 18597 ft | 418 kts | 109° |
| 2026-05-04 23:34 | -34.69814 | -57.58392 | 19107 ft | 426 kts | 101° |
| 2026-05-04 23:35 | -34.69984 | -57.54813 | 19567 ft | 433 kts | 88° |
| 2026-05-04 23:35 | -34.69526 | -57.51187 | 20072 ft | 438 kts | 74° |
| 2026-05-04 23:35 | -34.68425 | -57.47718 | 20593 ft | 439 kts | 60° |
| 2026-05-04 23:35 | -34.65019 | -57.41822 | 21589 ft | 441 kts | 47° |
| 2026-05-04 23:36 | -34.56956 | -57.30471 | 23608 ft | 450 kts | 46° |
| 2026-05-04 23:36 | -34.48915 | -57.18849 | 25268 ft | 460 kts | 46° |
| 2026-05-04 23:36 | -34.40581 | -57.06850 | 26794 ft | 470 kts | 46° |
| 2026-05-04 23:36 | -34.32047 | -56.94605 | 28191 ft | 480 kts | 46° |
| 2026-05-04 23:37 | -34.23347 | -56.82170 | 29528 ft | 488 kts | 46° |
| 2026-05-04 23:37 | -34.14482 | -56.69558 | 30739 ft | 496 kts | 46° |
| 2026-05-04 23:37 | -34.05509 | -56.56834 | 32020 ft | 498 kts | 46° |
| 2026-05-04 23:37 | -33.96605 | -56.44256 | 33197 ft | 500 kts | 46° |
| 2026-05-04 23:38 | -33.87526 | -56.31476 | 34292 ft | 501 kts | 46° |
| 2026-05-04 23:38 | -33.78407 | -56.18769 | 35182 ft | 501 kts | 45° |
| 2026-05-04 23:38 | -33.69316 | -56.06046 | 36021 ft | 502 kts | 46° |
| 2026-05-04 23:38 | -33.60212 | -55.93353 | 36795 ft | 501 kts | 45° |
| 2026-05-04 23:39 | -33.51104 | -55.80703 | 37479 ft | 501 kts | 45° |
| 2026-05-04 23:39 | -33.41988 | -55.68087 | 38077 ft | 501 kts | 45° |
| 2026-05-04 23:39 | -33.32855 | -55.55489 | 38627 ft | 501 kts | 45° |
| 2026-05-04 23:39 | -33.23798 | -55.43044 | 38917 ft | 503 kts | 45° |
| 2026-05-04 23:40 | -32.90952 | -54.98232 | 39007 ft | 499 kts | 45° |
| 2026-05-04 23:40 | -32.72271 | -54.73027 | 38868 ft | 516 kts | 45° |
| 2026-05-04 23:40 | -32.53634 | -54.48007 | 38923 ft | 499 kts | 45° |
| 2026-05-04 23:41 | -32.34987 | -54.23182 | 39079 ft | 509 kts | 45° |
| 2026-05-04 23:41 | -32.16674 | -53.98357 | 38892 ft | 504 kts | 46° |
| 2026-05-04 23:41 | -31.79464 | -53.48530 | 39068 ft | 504 kts | 46° |
| 2026-05-04 23:42 | -31.60783 | -53.23801 | 38879 ft | 510 kts | 46° |
| 2026-05-04 23:42 | -31.42026 | -52.99072 | 38921 ft | 507 kts | 45° |
| 2026-05-04 23:42 | -31.23459 | -52.74781 | 39075 ft | 504 kts | 46° |
| 2026-05-04 23:42 | -31.04374 | -52.49944 | 38935 ft | 509 kts | 45° |
| 2026-05-04 23:43 | -30.66367 | -52.01934 | 39105 ft | 504 kts | 44° |
| 2026-05-04 23:43 | -30.36238 | -51.64408 | 38491 ft | 506 kts | 35° |
| 2026-05-04 23:44 | -30.33438 | -51.62055 | 37878 ft | 502 kts | 36° |
| 2026-05-04 23:44 | -30.30016 | -51.57878 | 38246 ft | 496 kts | 52° |
| 2026-05-04 23:44 | -30.21877 | -51.45262 | 39042 ft | 485 kts | 47° |
| 2026-05-04 23:44 | -30.12805 | -51.33568 | 39034 ft | 494 kts | 46° |
| 2026-05-04 23:45 | -29.94098 | -51.09460 | 39048 ft | 508 kts | 46° |
| 2026-05-04 23:45 | -29.75350 | -50.85511 | 39066 ft | 503 kts | 46° |
| 2026-05-04 23:46 | -29.56556 | -50.61641 | 39069 ft | 503 kts | 46° |
| 2026-05-04 23:46 | -29.37548 | -50.38391 | 39102 ft | 502 kts | 44° |
| 2026-05-04 23:47 | -29.18281 | -50.15156 | 39113 ft | 503 kts | 44° |
| 2026-05-04 23:47 | -28.98913 | -49.91938 | 39102 ft | 503 kts | 44° |
| 2026-05-04 23:48 | -28.79835 | -49.68490 | 39086 ft | 505 kts | 46° |
| 2026-05-04 23:48 | -28.60983 | -49.44818 | 39087 ft | 505 kts | 46° |
| 2026-05-04 23:49 | -28.42131 | -49.21295 | 39080 ft | 506 kts | 46° |
| 2026-05-04 23:49 | -28.23112 | -48.97646 | 39100 ft | 508 kts | 46° |
| 2026-05-04 23:50 | -28.04145 | -48.73881 | 39104 ft | 508 kts | 46° |
| 2026-05-04 23:50 | -27.85245 | -48.50360 | 39107 ft | 508 kts | 46° |
| 2026-05-04 23:51 | -27.66181 | -48.26767 | 39113 ft | 510 kts | 46° |
| 2026-05-04 23:51 | -27.46982 | -48.03140 | 39133 ft | 510 kts | 46° |
| 2026-05-04 23:52 | -27.27911 | -47.79908 | 39140 ft | 507 kts | 45° |
| 2026-05-04 23:52 | -27.08685 | -47.56703 | 39142 ft | 507 kts | 45° |
| 2026-05-04 23:53 | -26.89521 | -47.33695 | 39153 ft | 504 kts | 45° |
| 2026-05-04 23:53 | -26.70255 | -47.10700 | 39138 ft | 506 kts | 45° |
| 2026-05-04 23:54 | -26.50925 | -46.87872 | 39168 ft | 504 kts | 45° |
| 2026-05-04 23:54 | -26.31694 | -46.65342 | 39152 ft | 504 kts | 45° |
| 2026-05-04 23:55 | -26.12375 | -46.42822 | 39162 ft | 501 kts | 45° |
| 2026-05-04 23:56 | -25.83401 | -46.09262 | 39162 ft | 500 kts | 45° |
| 2026-05-04 23:56 | -25.65044 | -45.88130 | 39163 ft | 500 kts | 44° |
| 2026-05-04 23:57 | -25.60217 | -45.82593 | 39167 ft | 500 kts | 44° |
| 2026-05-04 23:57 | -25.55383 | -45.77054 | 39163 ft | 499 kts | 44° |
| 2026-05-04 23:58 | -25.50547 | -45.71519 | 39161 ft | 498 kts | 44° |
| 2026-05-04 23:58 | -25.45771 | -45.66059 | 39164 ft | 496 kts | 44° |
| 2026-05-04 23:59 | -25.40971 | -45.60579 | 39167 ft | 496 kts | 44° |
| 2026-05-04 23:59 | -25.36170 | -45.55105 | 39168 ft | 496 kts | 44° |
| 2026-05-05 00:00 | -25.31357 | -45.49625 | 39168 ft | 497 kts | 44° |
| 2026-05-05 00:00 | -25.26540 | -45.44145 | 39170 ft | 497 kts | 44° |
| 2026-05-05 00:01 | -25.21746 | -45.38700 | 39170 ft | 497 kts | 44° |
| 2026-05-05 00:01 | -25.16915 | -45.33219 | 39168 ft | 497 kts | 44° |
| 2026-05-05 00:02 | -25.12122 | -45.27787 | 39154 ft | 497 kts | 44° |
| 2026-05-05 00:02 | -25.07309 | -45.22339 | 39170 ft | 495 kts | 44° |
| 2026-05-05 00:03 | -25.02502 | -45.16903 | 39171 ft | 494 kts | 44° |
| 2026-05-05 00:03 | -24.97704 | -45.11485 | 39176 ft | 493 kts | 44° |
| 2026-05-05 00:04 | -24.92940 | -45.06112 | 39176 ft | 493 kts | 44° |
| 2026-05-05 00:04 | -24.88149 | -45.00714 | 39094 ft | 492 kts | 44° |
| 2026-05-05 00:04 | -24.85762 | -44.98027 | 38612 ft | 488 kts | 44° |
| 2026-05-05 00:05 | -24.83377 | -44.95344 | 37832 ft | 493 kts | 44° |
| 2026-05-05 00:05 | -24.80968 | -44.92636 | 37035 ft | 496 kts | 44° |
| 2026-05-05 00:05 | -24.78559 | -44.89930 | 36281 ft | 494 kts | 44° |
| 2026-05-05 00:05 | -24.76162 | -44.87238 | 35552 ft | 491 kts | 44° |
| 2026-05-05 00:06 | -24.73806 | -44.84592 | 34854 ft | 488 kts | 44° |
| 2026-05-05 00:06 | -24.71434 | -44.81932 | 34137 ft | 486 kts | 44° |
| 2026-05-05 00:06 | -24.69084 | -44.79296 | 33600 ft | 480 kts | 44° |
| 2026-05-05 00:06 | -24.66744 | -44.76674 | 33077 ft | 479 kts | 44° |
| 2026-05-05 00:07 | -24.64404 | -44.74055 | 32556 ft | 477 kts | 44° |
| 2026-05-05 00:07 | -24.62114 | -44.71492 | 32070 ft | 475 kts | 44° |
| 2026-05-05 00:07 | -24.59805 | -44.68908 | 31579 ft | 472 kts | 43° |
| 2026-05-05 00:07 | -24.57508 | -44.66341 | 31099 ft | 470 kts | 43° |
| 2026-05-05 00:08 | -24.55220 | -44.63784 | 30624 ft | 468 kts | 43° |
| 2026-05-05 00:08 | -24.52941 | -44.61240 | 30147 ft | 466 kts | 43° |
| 2026-05-05 00:08 | -24.50660 | -44.58725 | 29597 ft | 462 kts | 39° |
| 2026-05-05 00:08 | -24.48047 | -44.56752 | 29049 ft | 452 kts | 21° |
| 2026-05-05 00:09 | -24.45153 | -44.55497 | 28527 ft | 446 kts | 15° |
| 2026-05-05 00:09 | -24.42265 | -44.54433 | 28011 ft | 443 kts | 14° |
| 2026-05-05 00:09 | -24.39347 | -44.53368 | 27523 ft | 440 kts | 14° |
| 2026-05-05 00:09 | -24.36454 | -44.52297 | 27017 ft | 438 kts | 15° |
| 2026-05-05 00:10 | -24.33585 | -44.51222 | 26567 ft | 434 kts | 15° |
| 2026-05-05 00:10 | -24.30750 | -44.50150 | 26181 ft | 429 kts | 15° |
| 2026-05-05 00:10 | -24.27950 | -44.49087 | 25823 ft | 423 kts | 15° |
| 2026-05-05 00:10 | -24.25186 | -44.48036 | 25473 ft | 418 kts | 15° |
| 2026-05-05 00:11 | -24.22449 | -44.46994 | 25121 ft | 413 kts | 15° |
| 2026-05-05 00:11 | -24.19792 | -44.45982 | 24779 ft | 408 kts | 16° |
| 2026-05-05 00:11 | -24.17128 | -44.44968 | 24435 ft | 403 kts | 16° |
| 2026-05-05 00:11 | -24.14495 | -44.43966 | 24097 ft | 398 kts | 16° |
| 2026-05-05 00:12 | -24.11891 | -44.42975 | 23754 ft | 394 kts | 15° |
| 2026-05-05 00:12 | -24.09308 | -44.41992 | 23410 ft | 391 kts | 15° |
| 2026-05-05 00:12 | -24.06749 | -44.41020 | 23093 ft | 389 kts | 16° |
| 2026-05-05 00:12 | -24.04193 | -44.40048 | 22780 ft | 387 kts | 16° |
| 2026-05-05 00:13 | -24.01655 | -44.39084 | 22468 ft | 385 kts | 15° |
| 2026-05-05 00:13 | -23.99165 | -44.38138 | 22168 ft | 383 kts | 15° |
| 2026-05-05 00:13 | -23.96649 | -44.37183 | 21866 ft | 382 kts | 15° |
| 2026-05-05 00:13 | -23.94147 | -44.36234 | 21562 ft | 379 kts | 15° |
| 2026-05-05 00:14 | -23.91660 | -44.35290 | 21266 ft | 378 kts | 15° |
| 2026-05-05 00:14 | -23.89183 | -44.34351 | 20965 ft | 376 kts | 15° |
| 2026-05-05 00:14 | -23.86717 | -44.33416 | 20675 ft | 374 kts | 16° |
| 2026-05-05 00:14 | -23.84261 | -44.32485 | 20387 ft | 372 kts | 15° |
| 2026-05-05 00:15 | -23.81813 | -44.31558 | 20105 ft | 371 kts | 15° |
| 2026-05-05 00:15 | -23.79411 | -44.30649 | 19821 ft | 369 kts | 16° |
| 2026-05-05 00:15 | -23.76988 | -44.29732 | 19546 ft | 368 kts | 15° |
| 2026-05-05 00:15 | -23.74575 | -44.28819 | 19271 ft | 366 kts | 16° |
| 2026-05-05 00:16 | -23.72172 | -44.27911 | 18996 ft | 365 kts | 15° |
| 2026-05-05 00:16 | -23.69781 | -44.27007 | 18719 ft | 363 kts | 15° |
| 2026-05-05 00:16 | -23.67400 | -44.26107 | 18444 ft | 362 kts | 16° |
| 2026-05-05 00:16 | -23.65021 | -44.25208 | 18134 ft | 361 kts | 15° |
| 2026-05-05 00:17 | -23.62656 | -44.24315 | 17825 ft | 359 kts | 15° |
| 2026-05-05 00:17 | -23.60298 | -44.23425 | 17552 ft | 357 kts | 15° |
| 2026-05-05 00:17 | -23.57980 | -44.22551 | 17326 ft | 356 kts | 16° |
| 2026-05-05 00:17 | -23.55644 | -44.21669 | 17071 ft | 355 kts | 15° |
| 2026-05-05 00:18 | -23.53309 | -44.20790 | 16818 ft | 355 kts | 17° |
| 2026-05-05 00:18 | -23.50984 | -44.19914 | 16575 ft | 353 kts | 15° |
| 2026-05-05 00:18 | -23.48664 | -44.19039 | 16324 ft | 352 kts | 15° |
| 2026-05-05 00:18 | -23.46350 | -44.18168 | 16196 ft | 351 kts | 15° |
| 2026-05-05 00:19 | -23.44040 | -44.17299 | 16182 ft | 350 kts | 15° |
| 2026-05-05 00:19 | -23.41733 | -44.16431 | 16183 ft | 351 kts | 15° |
| 2026-05-05 00:19 | -23.39429 | -44.15564 | 16183 ft | 351 kts | 17° |
| 2026-05-05 00:19 | -23.37150 | -44.14708 | 16034 ft | 349 kts | 17° |
| 2026-05-05 00:20 | -23.34857 | -44.13845 | 15790 ft | 349 kts | 15° |
| 2026-05-05 00:20 | -23.32556 | -44.12981 | 15552 ft | 349 kts | 15° |
| 2026-05-05 00:20 | -23.30264 | -44.12120 | 15319 ft | 347 kts | 17° |
| 2026-05-05 00:20 | -23.27986 | -44.11265 | 15079 ft | 345 kts | 17° |
| 2026-05-05 00:21 | -23.25716 | -44.10412 | 14841 ft | 344 kts | 16° |
| 2026-05-05 00:21 | -23.23458 | -44.09565 | 14610 ft | 343 kts | 17° |
| 2026-05-05 00:21 | -23.21208 | -44.08721 | 14384 ft | 342 kts | 17° |
| 2026-05-05 00:21 | -23.18985 | -44.07888 | 14157 ft | 342 kts | 17° |
| 2026-05-05 00:22 | -23.16741 | -44.07047 | 13925 ft | 340 kts | 17° |
| 2026-05-05 00:22 | -23.14512 | -44.06211 | 13665 ft | 339 kts | 17° |
| 2026-05-05 00:22 | -23.12279 | -44.05375 | 13414 ft | 338 kts | 17° |
| 2026-05-05 00:22 | -23.10062 | -44.04545 | 13159 ft | 336 kts | 17° |
| 2026-05-05 00:23 | -23.07863 | -44.03722 | 12909 ft | 333 kts | 18° |
| 2026-05-05 00:23 | -23.05680 | -44.02905 | 12649 ft | 331 kts | 18° |
| 2026-05-05 00:23 | -23.03503 | -44.02090 | 12405 ft | 330 kts | 18° |
| 2026-05-05 00:23 | -23.01341 | -44.01282 | 12238 ft | 329 kts | 18° |
| 2026-05-05 00:24 | -22.99205 | -44.00483 | 12175 ft | 329 kts | 17° |
| 2026-05-05 00:24 | -22.97042 | -43.99676 | 12108 ft | 328 kts | 18° |
| 2026-05-05 00:24 | -22.94889 | -43.98855 | 11934 ft | 328 kts | 21° |
| 2026-05-05 00:24 | -22.92960 | -43.97562 | 11560 ft | 326 kts | 43° |
| 2026-05-05 00:25 | -22.91584 | -43.95633 | 11284 ft | 324 kts | 58° |
| 2026-05-05 00:25 | -22.90414 | -43.93543 | 11051 ft | 324 kts | 59° |
| 2026-05-05 00:25 | -22.89293 | -43.91433 | 10805 ft | 322 kts | 60° |
| 2026-05-05 00:25 | -22.88132 | -43.89403 | 10528 ft | 319 kts | 57° |
| 2026-05-05 00:26 | -22.86888 | -43.87419 | 10253 ft | 317 kts | 55° |
| 2026-05-05 00:26 | -22.85619 | -43.85475 | 9973 ft | 313 kts | 55° |
| 2026-05-05 00:26 | -22.84403 | -43.83547 | 9654 ft | 306 kts | 57° |
| 2026-05-05 00:26 | -22.83313 | -43.81592 | 9362 ft | 301 kts | 61° |
| 2026-05-05 00:27 | -22.82309 | -43.79617 | 9076 ft | 299 kts | 62° |
| 2026-05-05 00:27 | -22.81320 | -43.77636 | 8796 ft | 298 kts | 62° |
| 2026-05-05 00:27 | -22.80349 | -43.75660 | 8498 ft | 297 kts | 62° |
| 2026-05-05 00:27 | -22.79338 | -43.73745 | 8260 ft | 295 kts | 56° |
| 2026-05-05 00:28 | -22.78165 | -43.71928 | 8064 ft | 294 kts | 54° |
| 2026-05-05 00:28 | -22.76974 | -43.70141 | 7863 ft | 293 kts | 53° |
| 2026-05-05 00:28 | -22.75777 | -43.68354 | 7659 ft | 292 kts | 54° |
| 2026-05-05 00:28 | -22.74656 | -43.66524 | 7456 ft | 291 kts | 57° |
| 2026-05-05 00:29 | -22.73588 | -43.64668 | 7243 ft | 290 kts | 58° |
| 2026-05-05 00:29 | -22.72540 | -43.62807 | 7059 ft | 289 kts | 58° |
| 2026-05-05 00:29 | -22.71496 | -43.60953 | 6860 ft | 288 kts | 58° |
| 2026-05-05 00:29 | -22.70453 | -43.59099 | 6662 ft | 287 kts | 58° |
| 2026-05-05 00:30 | -22.69415 | -43.57253 | 6454 ft | 287 kts | 58° |
| 2026-05-05 00:30 | -22.68400 | -43.55447 | 6242 ft | 285 kts | 58° |
| 2026-05-05 00:30 | -22.67362 | -43.53610 | 6031 ft | 283 kts | 57° |
| 2026-05-05 00:30 | -22.66358 | -43.51782 | 5932 ft | 282 kts | 64° |
| 2026-05-05 00:31 | -22.65932 | -43.49734 | 5682 ft | 279 kts | 93° |
| 2026-05-05 00:31 | -22.66551 | -43.47801 | 5456 ft | 274 kts | 127° |
| 2026-05-05 00:31 | -22.67860 | -43.46277 | 5084 ft | 282 kts | 134° |
| 2026-05-05 00:31 | -22.69181 | -43.44672 | 4509 ft | 287 kts | 128° |
| 2026-05-05 00:32 | -22.70326 | -43.42971 | 4204 ft | 281 kts | 123° |
| 2026-05-05 00:32 | -22.71419 | -43.41231 | 3801 ft | 278 kts | 124° |
| 2026-05-05 00:32 | -22.72528 | -43.39528 | 3240 ft | 273 kts | 124° |
| 2026-05-05 00:32 | -22.73591 | -43.37924 | 2646 ft | 256 kts | 124° |
| 2026-05-05 00:33 | -22.74610 | -43.36417 | 2140 ft | 239 kts | 125° |
| 2026-05-05 00:33 | -22.75552 | -43.35026 | 1771 ft | 218 kts | 124° |
| 2026-05-05 00:33 | -22.76366 | -43.33772 | 1470 ft | 198 kts | 122° |
| 2026-05-05 00:33 | -22.77112 | -43.32586 | 1226 ft | 182 kts | 123° |
| 2026-05-05 00:34 | -22.77823 | -43.31517 | 979 ft | 168 kts | 126° |
| 2026-05-05 00:34 | -22.78480 | -43.30563 | 901 ft | 147 kts | 125° |
| 2026-05-05 00:34 | -22.79057 | -43.29688 | 760 ft | 140 kts | 123° |
| 2026-05-05 00:34 | -22.79604 | -43.28818 | 597 ft | 139 kts | 123° |
| 2026-05-05 00:35 | -22.80169 | -43.27981 | 398 ft | 136 kts | 124° |
| 2026-05-05 00:35 | -22.80721 | -43.27152 | 250 ft | 137 kts | 123° |
| 2026-05-05 00:35 | -22.81273 | -43.26319 | 65 ft | 135 kts | 123° |
| 2026-05-05 00:35 | -22.81791 | -43.25536 | 28 ft | 112 kts | 126° |
| 2026-05-05 00:36 | -22.82144 | -43.25010 | 26 ft | 60 kts | 125° |
| 2026-05-05 00:36 | -22.82303 | -43.24770 | 21 ft | 31 kts | 124° |
| 2026-05-05 00:36 | -22.82358 | -43.24570 | 23 ft | 24 kts | 96° |
| 2026-05-05 00:36 | -22.82356 | -43.24448 | 21 ft | 6 kts | 40° |
| 2026-05-05 00:37 | -22.82330 | -43.24455 | 21 ft | 7 kts | 325° |
| 2026-05-05 00:37 | -22.82286 | -43.24518 | 24 ft | 11 kts | 306° |
| 2026-05-05 00:37 | -22.82245 | -43.24581 | 24 ft | 10 kts | 306° |
| 2026-05-05 00:37 | -22.82203 | -43.24644 | 24 ft | 10 kts | 306° |
| 2026-05-05 00:38 | -22.82161 | -43.24708 | 22 ft | 10 kts | 306° |
| 2026-05-05 00:38 | -22.82111 | -43.24733 | 24 ft | 7 kts | 19° |
| 2026-05-05 00:38 | -22.82069 | -43.24700 | 25 ft | 8 kts | 36° |
| 2026-05-05 00:38 | -22.82022 | -43.24664 | 28 ft | 8 kts | 34° |
| 2026-05-05 00:39 | -22.81967 | -43.24622 | 26 ft | 11 kts | 35° |
| 2026-05-05 00:39 | -22.81906 | -43.24608 | 24 ft | 9 kts | 350° |
| 2026-05-05 00:39 | -22.81848 | -43.24580 | 26 ft | 10 kts | 37° |
| 2026-05-05 00:39 | -22.81782 | -43.24552 | 25 ft | 10 kts | 339° |
| 2026-05-05 00:40 | -22.81724 | -43.24605 | 26 ft | 10 kts | 311° |
| 2026-05-05 00:40 | -22.81675 | -43.24664 | 25 ft | 12 kts | 304° |
| 2026-05-05 00:40 | -22.81624 | -43.24743 | 27 ft | 14 kts | 304° |
| 2026-05-05 00:40 | -22.81566 | -43.24834 | 27 ft | 16 kts | 311° |
| 2026-05-05 00:41 | -22.81515 | -43.24859 | 25 ft | 1 kts | 57° |
| 2026-05-05 00:41 | -22.81509 | -43.24831 | 25 ft | 8 kts | 69° |
| 2026-05-05 00:41 | -22.81500 | -43.24812 | 25 ft | 0 kts | 62° |